PDA6123 LMML-UKWW
Flight info
| Callsign | PDA6123 |
|---|---|
| Flight time | 2h 37m |
| Altitude | 37000 |
| Route | VESOD DCT CRN DCT PAPIZ/N0458F370 DCT ALELU DCT VELIP DCT TIDGA DCT ROMOL/K0843F370 P129 KOROP |
| Aircraft | A320/M-VD/A |
Departure
| Time | 2026-04-23 13:47 |
|---|---|
| Airport | Malta International Airport (LMML) |
Arrival
| Time | 2026-04-23 16:24 |
|---|---|
| Airport | Vinnytsia/Gavyryshivka International Airport (UKWW) |
| Time | Latitude | Longitude | Altitude | Speed | Heading |
|---|---|---|---|---|---|
| 2026-04-23 13:30 | 35.85371 | 14.48575 | 265 ft | 0 kts | 4° |
| 2026-04-23 13:37 | 35.85364 | 14.48574 | 265 ft | 2 kts | 4° |
| 2026-04-23 13:37 | 35.85352 | 14.48574 | 265 ft | 2 kts | 4° |
| 2026-04-23 13:38 | 35.85340 | 14.48573 | 265 ft | 2 kts | 3° |
| 2026-04-23 13:38 | 35.85328 | 14.48572 | 265 ft | 2 kts | 359° |
| 2026-04-23 13:38 | 35.85319 | 14.48573 | 265 ft | 0 kts | 325° |
| 2026-04-23 13:40 | 35.85320 | 14.48572 | 265 ft | 1 kts | 325° |
| 2026-04-23 13:41 | 35.85337 | 14.48549 | 265 ft | 6 kts | 312° |
| 2026-04-23 13:41 | 35.85374 | 14.48488 | 266 ft | 11 kts | 307° |
| 2026-04-23 13:41 | 35.85434 | 14.48396 | 266 ft | 17 kts | 317° |
| 2026-04-23 13:41 | 35.85537 | 14.48290 | 266 ft | 22 kts | 317° |
| 2026-04-23 13:42 | 35.85676 | 14.48199 | 261 ft | 24 kts | 351° |
| 2026-04-23 13:42 | 35.85863 | 14.48170 | 249 ft | 22 kts | 351° |
| 2026-04-23 13:42 | 35.85996 | 14.48112 | 248 ft | 21 kts | 314° |
| 2026-04-23 13:42 | 35.85969 | 14.47961 | 251 ft | 19 kts | 246° |
| 2026-04-23 13:43 | 35.85919 | 14.47811 | 251 ft | 19 kts | 249° |
| 2026-04-23 13:43 | 35.85869 | 14.47656 | 253 ft | 20 kts | 246° |
| 2026-04-23 13:43 | 35.85806 | 14.47501 | 255 ft | 21 kts | 236° |
| 2026-04-23 13:43 | 35.85717 | 14.47351 | 255 ft | 22 kts | 233° |
| 2026-04-23 13:44 | 35.85619 | 14.47193 | 256 ft | 24 kts | 233° |
| 2026-04-23 13:44 | 35.85518 | 14.47027 | 258 ft | 25 kts | 233° |
| 2026-04-23 13:44 | 35.85410 | 14.46853 | 260 ft | 26 kts | 233° |
| 2026-04-23 13:44 | 35.85303 | 14.46667 | 262 ft | 27 kts | 236° |
| 2026-04-23 13:45 | 35.85194 | 14.46471 | 264 ft | 28 kts | 234° |
| 2026-04-23 13:45 | 35.85076 | 14.46270 | 266 ft | 30 kts | 234° |
| 2026-04-23 13:45 | 35.84953 | 14.46061 | 268 ft | 30 kts | 234° |
| 2026-04-23 13:45 | 35.84832 | 14.45963 | 270 ft | 20 kts | 169° |
| 2026-04-23 13:46 | 35.84779 | 14.46052 | 274 ft | 15 kts | 72° |
| 2026-04-23 13:46 | 35.84842 | 14.46175 | 269 ft | 20 kts | 55° |
| 2026-04-23 13:46 | 35.85045 | 14.46522 | 265 ft | 84 kts | 54° |
| 2026-04-23 13:46 | 35.85488 | 14.47284 | 262 ft | 135 kts | 55° |
| 2026-04-23 13:47 | 35.86046 | 14.48214 | 805 ft | 134 kts | 53° |
| 2026-04-23 13:47 | 35.86619 | 14.49120 | 1434 ft | 135 kts | 56° |
| 2026-04-23 13:47 | 35.87185 | 14.50122 | 1812 ft | 153 kts | 57° |
| 2026-04-23 13:47 | 35.87829 | 14.51285 | 2177 ft | 176 kts | 57° |
| 2026-04-23 13:48 | 35.88570 | 14.52618 | 2654 ft | 200 kts | 57° |
| 2026-04-23 13:48 | 35.89411 | 14.54117 | 3122 ft | 224 kts | 54° |
| 2026-04-23 13:48 | 35.90350 | 14.55775 | 3594 ft | 247 kts | 54° |
| 2026-04-23 13:48 | 35.91437 | 14.57474 | 4339 ft | 254 kts | 39° |
| 2026-04-23 13:49 | 35.92903 | 14.58693 | 5190 ft | 256 kts | 20° |
| 2026-04-23 13:49 | 35.94632 | 14.59233 | 6091 ft | 258 kts | 2° |
| 2026-04-23 13:49 | 35.96428 | 14.59370 | 6998 ft | 260 kts | 360° |
| 2026-04-23 13:49 | 35.98238 | 14.59516 | 7862 ft | 263 kts | 359° |
| 2026-04-23 13:50 | 36.00057 | 14.59672 | 8730 ft | 266 kts | 359° |
| 2026-04-23 13:50 | 36.01915 | 14.59835 | 9589 ft | 269 kts | 358° |
| 2026-04-23 13:50 | 36.03796 | 14.60006 | 10322 ft | 277 kts | 358° |
| 2026-04-23 13:50 | 36.05805 | 14.60240 | 10588 ft | 301 kts | 360° |
| 2026-04-23 13:51 | 36.07976 | 14.60511 | 10793 ft | 325 kts | 0° |
| 2026-04-23 13:51 | 36.10299 | 14.60960 | 11063 ft | 350 kts | 11° |
| 2026-04-23 13:51 | 36.12583 | 14.62173 | 11658 ft | 366 kts | 25° |
| 2026-04-23 13:51 | 36.14648 | 14.64131 | 12299 ft | 381 kts | 39° |
| 2026-04-23 13:52 | 36.16279 | 14.66795 | 12918 ft | 397 kts | 56° |
| 2026-04-23 13:52 | 36.17328 | 14.70015 | 13541 ft | 408 kts | 67° |
| 2026-04-23 13:52 | 36.18244 | 14.73353 | 14130 ft | 413 kts | 67° |
| 2026-04-23 13:52 | 36.19163 | 14.76751 | 14701 ft | 417 kts | 67° |
| 2026-04-23 13:53 | 36.20081 | 14.80160 | 15256 ft | 420 kts | 67° |
| 2026-04-23 13:53 | 36.20997 | 14.83569 | 15811 ft | 424 kts | 67° |
| 2026-04-23 13:53 | 36.21930 | 14.87048 | 16367 ft | 427 kts | 67° |
| 2026-04-23 13:53 | 36.22880 | 14.90559 | 16913 ft | 431 kts | 67° |
| 2026-04-23 13:54 | 36.23840 | 14.94094 | 17466 ft | 435 kts | 67° |
| 2026-04-23 13:54 | 36.24811 | 14.97671 | 17993 ft | 440 kts | 68° |
| 2026-04-23 13:54 | 36.25784 | 15.01283 | 18523 ft | 444 kts | 68° |
| 2026-04-23 13:54 | 36.26764 | 15.04928 | 19020 ft | 447 kts | 68° |
| 2026-04-23 13:55 | 36.27748 | 15.08595 | 19551 ft | 451 kts | 67° |
| 2026-04-23 13:55 | 36.28746 | 15.12309 | 20036 ft | 454 kts | 68° |
| 2026-04-23 13:55 | 36.29749 | 15.16040 | 20519 ft | 458 kts | 67° |
| 2026-04-23 13:55 | 36.30761 | 15.19792 | 20987 ft | 461 kts | 67° |
| 2026-04-23 13:56 | 36.31778 | 15.23578 | 21446 ft | 464 kts | 68° |
| 2026-04-23 13:56 | 36.32796 | 15.27394 | 21883 ft | 468 kts | 68° |
| 2026-04-23 13:56 | 36.33821 | 15.31236 | 22317 ft | 471 kts | 68° |
| 2026-04-23 13:56 | 36.34852 | 15.35105 | 22748 ft | 473 kts | 68° |
| 2026-04-23 13:57 | 36.35887 | 15.38998 | 23168 ft | 477 kts | 68° |
| 2026-04-23 13:57 | 36.36928 | 15.42914 | 23593 ft | 479 kts | 68° |
| 2026-04-23 13:57 | 36.37972 | 15.46856 | 23942 ft | 482 kts | 68° |
| 2026-04-23 13:57 | 36.39016 | 15.50816 | 24294 ft | 484 kts | 68° |
| 2026-04-23 13:58 | 36.40069 | 15.54814 | 24650 ft | 487 kts | 68° |
| 2026-04-23 13:58 | 36.41111 | 15.58772 | 25001 ft | 489 kts | 68° |
| 2026-04-23 13:58 | 36.42167 | 15.62795 | 25347 ft | 491 kts | 68° |
| 2026-04-23 13:58 | 36.43228 | 15.66838 | 25698 ft | 494 kts | 68° |
| 2026-04-23 13:59 | 36.44298 | 15.70902 | 26049 ft | 497 kts | 68° |
| 2026-04-23 13:59 | 36.45378 | 15.74998 | 26374 ft | 500 kts | 67° |
| 2026-04-23 13:59 | 36.46461 | 15.79110 | 26715 ft | 502 kts | 67° |
| 2026-04-23 13:59 | 36.47686 | 15.83176 | 27036 ft | 500 kts | 59° |
| 2026-04-23 14:00 | 36.48772 | 15.85739 | 27258 ft | 496 kts | 52° |
| 2026-04-23 14:00 | 36.51483 | 15.90209 | 27882 ft | 483 kts | 39° |
| 2026-04-23 14:00 | 36.53933 | 15.93004 | 28406 ft | 472 kts | 30° |
| 2026-04-23 14:00 | 36.56618 | 15.95247 | 28938 ft | 461 kts | 21° |
| 2026-04-23 14:01 | 36.59491 | 15.96937 | 29476 ft | 449 kts | 12° |
| 2026-04-23 14:01 | 36.62417 | 15.98251 | 30025 ft | 446 kts | 11° |
| 2026-04-23 14:01 | 36.65299 | 15.99542 | 30540 ft | 444 kts | 11° |
| 2026-04-23 14:01 | 36.67261 | 16.00425 | 30825 ft | 444 kts | 11° |
| 2026-04-23 14:02 | 36.70172 | 16.01734 | 31208 ft | 445 kts | 11° |
| 2026-04-23 14:02 | 36.73076 | 16.03040 | 31642 ft | 444 kts | 11° |
| 2026-04-23 14:02 | 36.76922 | 16.04772 | 32257 ft | 442 kts | 11° |
| 2026-04-23 14:02 | 36.79813 | 16.06076 | 32713 ft | 441 kts | 11° |
| 2026-04-23 14:03 | 36.81759 | 16.06954 | 33033 ft | 440 kts | 11° |
| 2026-04-23 14:03 | 36.84636 | 16.08253 | 33500 ft | 438 kts | 11° |
| 2026-04-23 14:03 | 36.87504 | 16.09546 | 34017 ft | 437 kts | 11° |
| 2026-04-23 14:03 | 36.90359 | 16.10832 | 34430 ft | 436 kts | 11° |
| 2026-04-23 14:04 | 36.93180 | 16.12104 | 34800 ft | 435 kts | 11° |
| 2026-04-23 14:04 | 36.96028 | 16.13391 | 35156 ft | 435 kts | 11° |
| 2026-04-23 14:04 | 36.98875 | 16.14680 | 35510 ft | 434 kts | 11° |
| 2026-04-23 14:04 | 37.01713 | 16.15969 | 35843 ft | 434 kts | 11° |
| 2026-04-23 14:05 | 37.04553 | 16.17260 | 36176 ft | 433 kts | 11° |
| 2026-04-23 14:05 | 37.07383 | 16.18543 | 36546 ft | 433 kts | 12° |
| 2026-04-23 14:05 | 37.10223 | 16.19831 | 36834 ft | 433 kts | 12° |
| 2026-04-23 14:05 | 37.13056 | 16.21118 | 37024 ft | 434 kts | 12° |
| 2026-04-23 14:06 | 37.15922 | 16.22419 | 37060 ft | 439 kts | 12° |
| 2026-04-23 14:06 | 37.21645 | 16.25025 | 37057 ft | 441 kts | 12° |
| 2026-04-23 14:07 | 37.27413 | 16.27660 | 37062 ft | 441 kts | 12° |
| 2026-04-23 14:07 | 37.36080 | 16.31624 | 37063 ft | 441 kts | 12° |
| 2026-04-23 14:08 | 37.41861 | 16.34268 | 37065 ft | 442 kts | 12° |
| 2026-04-23 14:08 | 37.47635 | 16.36921 | 37064 ft | 443 kts | 12° |
| 2026-04-23 14:09 | 37.53437 | 16.39597 | 37100 ft | 444 kts | 12° |
| 2026-04-23 14:09 | 37.59239 | 16.42266 | 37087 ft | 444 kts | 12° |
| 2026-04-23 14:10 | 37.65055 | 16.44944 | 37077 ft | 445 kts | 12° |
| 2026-04-23 14:10 | 37.70837 | 16.47615 | 37075 ft | 445 kts | 12° |
| 2026-04-23 14:11 | 37.76665 | 16.50320 | 37091 ft | 446 kts | 13° |
| 2026-04-23 14:11 | 37.82491 | 16.53021 | 37081 ft | 446 kts | 12° |
| 2026-04-23 14:12 | 37.88332 | 16.55721 | 37079 ft | 446 kts | 13° |
| 2026-04-23 14:12 | 37.94153 | 16.58429 | 37122 ft | 446 kts | 13° |
| 2026-04-23 14:13 | 37.99948 | 16.61140 | 37060 ft | 446 kts | 13° |
| 2026-04-23 14:13 | 38.05773 | 16.63860 | 37054 ft | 446 kts | 13° |
| 2026-04-23 14:14 | 38.11614 | 16.66582 | 37054 ft | 447 kts | 13° |
| 2026-04-23 14:14 | 38.17453 | 16.69314 | 37067 ft | 447 kts | 14° |
| 2026-04-23 14:15 | 38.23301 | 16.72072 | 37077 ft | 448 kts | 14° |
| 2026-04-23 14:15 | 38.29114 | 16.74797 | 37061 ft | 448 kts | 14° |
| 2026-04-23 14:16 | 38.35010 | 16.77570 | 37060 ft | 449 kts | 14° |
| 2026-04-23 14:16 | 38.40845 | 16.80312 | 37076 ft | 450 kts | 14° |
| 2026-04-23 14:17 | 38.46713 | 16.83073 | 37072 ft | 450 kts | 14° |
| 2026-04-23 14:17 | 38.52568 | 16.85846 | 37065 ft | 450 kts | 14° |
| 2026-04-23 14:18 | 38.58466 | 16.88655 | 37100 ft | 450 kts | 15° |
| 2026-04-23 14:18 | 38.64344 | 16.91452 | 37079 ft | 450 kts | 15° |
| 2026-04-23 14:19 | 38.70228 | 16.94247 | 37079 ft | 450 kts | 15° |
| 2026-04-23 14:19 | 38.76102 | 16.97043 | 37081 ft | 451 kts | 15° |
| 2026-04-23 14:20 | 38.81938 | 16.99835 | 37082 ft | 450 kts | 16° |
| 2026-04-23 14:20 | 38.87810 | 17.02649 | 37080 ft | 450 kts | 16° |
| 2026-04-23 14:21 | 38.93673 | 17.05449 | 37090 ft | 449 kts | 15° |
| 2026-04-23 14:21 | 38.99486 | 17.08477 | 37088 ft | 454 kts | 24° |
| 2026-04-23 14:22 | 39.04715 | 17.13146 | 37080 ft | 459 kts | 32° |
| 2026-04-23 14:22 | 39.09840 | 17.18054 | 37076 ft | 458 kts | 32° |
| 2026-04-23 14:23 | 39.14959 | 17.22945 | 37073 ft | 458 kts | 32° |
| 2026-04-23 14:23 | 39.20077 | 17.27838 | 37094 ft | 458 kts | 33° |
| 2026-04-23 14:24 | 39.25190 | 17.32742 | 37088 ft | 457 kts | 33° |
| 2026-04-23 14:24 | 39.30293 | 17.37652 | 37084 ft | 457 kts | 33° |
| 2026-04-23 14:25 | 39.35360 | 17.42530 | 37084 ft | 457 kts | 33° |
| 2026-04-23 14:25 | 39.40458 | 17.47451 | 37071 ft | 457 kts | 33° |
| 2026-04-23 14:26 | 39.45564 | 17.52387 | 37068 ft | 458 kts | 33° |
| 2026-04-23 14:26 | 39.50658 | 17.57326 | 37068 ft | 458 kts | 33° |
| 2026-04-23 14:27 | 39.55772 | 17.62280 | 37082 ft | 458 kts | 33° |
| 2026-04-23 14:27 | 39.60843 | 17.67203 | 37080 ft | 457 kts | 33° |
| 2026-04-23 14:28 | 39.65917 | 17.72151 | 37079 ft | 456 kts | 33° |
| 2026-04-23 14:28 | 39.70995 | 17.77116 | 37072 ft | 456 kts | 33° |
| 2026-04-23 14:29 | 39.76063 | 17.82075 | 37079 ft | 456 kts | 34° |
| 2026-04-23 14:29 | 39.81121 | 17.87032 | 37074 ft | 455 kts | 34° |
| 2026-04-23 14:30 | 39.86173 | 17.91978 | 37065 ft | 454 kts | 34° |
| 2026-04-23 14:30 | 39.91191 | 17.96916 | 37063 ft | 454 kts | 34° |
| 2026-04-23 14:31 | 39.96222 | 18.01882 | 37068 ft | 453 kts | 34° |
| 2026-04-23 14:31 | 40.01246 | 18.06839 | 37068 ft | 452 kts | 34° |
| 2026-04-23 14:32 | 40.06270 | 18.11788 | 37067 ft | 451 kts | 34° |
| 2026-04-23 14:32 | 40.11278 | 18.16742 | 37077 ft | 451 kts | 34° |
| 2026-04-23 14:33 | 40.16267 | 18.21695 | 37090 ft | 449 kts | 34° |
| 2026-04-23 14:33 | 40.21234 | 18.26653 | 37087 ft | 448 kts | 35° |
| 2026-04-23 14:34 | 40.26187 | 18.31594 | 37082 ft | 446 kts | 34° |
| 2026-04-23 14:34 | 40.31121 | 18.36517 | 37078 ft | 445 kts | 36° |
| 2026-04-23 14:35 | 40.36046 | 18.41431 | 37080 ft | 444 kts | 36° |
| 2026-04-23 14:35 | 40.40920 | 18.46306 | 37080 ft | 443 kts | 36° |
| 2026-04-23 14:36 | 40.45818 | 18.51217 | 37069 ft | 442 kts | 35° |
| 2026-04-23 14:36 | 40.50693 | 18.56132 | 37075 ft | 441 kts | 36° |
| 2026-04-23 14:37 | 40.55559 | 18.61029 | 37065 ft | 439 kts | 36° |
| 2026-04-23 14:37 | 40.60368 | 18.65891 | 37059 ft | 438 kts | 36° |
| 2026-04-23 14:38 | 40.65208 | 18.70789 | 37057 ft | 438 kts | 36° |
| 2026-04-23 14:38 | 40.70041 | 18.75680 | 37061 ft | 437 kts | 37° |
| 2026-04-23 14:39 | 40.74848 | 18.80567 | 37064 ft | 436 kts | 37° |
| 2026-04-23 14:39 | 40.79664 | 18.85461 | 37055 ft | 436 kts | 37° |
| 2026-04-23 14:40 | 40.84457 | 18.90343 | 37059 ft | 435 kts | 37° |
| 2026-04-23 14:40 | 40.89335 | 18.95056 | 37056 ft | 433 kts | 29° |
| 2026-04-23 14:41 | 40.94841 | 18.98305 | 37060 ft | 433 kts | 23° |
| 2026-04-23 14:41 | 41.00378 | 19.01346 | 37046 ft | 433 kts | 23° |
| 2026-04-23 14:42 | 41.05939 | 19.04424 | 37045 ft | 433 kts | 24° |
| 2026-04-23 14:42 | 41.11489 | 19.07510 | 37056 ft | 432 kts | 24° |
| 2026-04-23 14:43 | 41.17039 | 19.10599 | 37058 ft | 432 kts | 24° |
| 2026-04-23 14:43 | 41.21652 | 19.13166 | 37062 ft | 432 kts | 24° |
| 2026-04-23 14:44 | 41.28096 | 19.16764 | 37060 ft | 431 kts | 24° |
| 2026-04-23 14:44 | 41.32701 | 19.19344 | 37050 ft | 431 kts | 24° |
| 2026-04-23 14:45 | 41.38237 | 19.22444 | 37049 ft | 431 kts | 24° |
| 2026-04-23 14:45 | 41.43764 | 19.25530 | 37041 ft | 430 kts | 24° |
| 2026-04-23 14:46 | 41.49281 | 19.28630 | 37046 ft | 430 kts | 24° |
| 2026-04-23 14:46 | 41.54795 | 19.31738 | 37048 ft | 429 kts | 24° |
| 2026-04-23 14:47 | 41.60308 | 19.34847 | 37049 ft | 429 kts | 24° |
| 2026-04-23 14:47 | 41.65777 | 19.37933 | 37054 ft | 429 kts | 24° |
| 2026-04-23 14:48 | 41.71272 | 19.41048 | 37039 ft | 428 kts | 25° |
| 2026-04-23 14:48 | 41.76770 | 19.44169 | 37035 ft | 428 kts | 25° |
| 2026-04-23 14:49 | 41.82263 | 19.47283 | 37047 ft | 427 kts | 25° |
| 2026-04-23 14:49 | 41.87740 | 19.50404 | 37035 ft | 427 kts | 25° |
| 2026-04-23 14:50 | 41.93210 | 19.53525 | 37031 ft | 427 kts | 25° |
| 2026-04-23 14:50 | 41.98648 | 19.56634 | 37028 ft | 426 kts | 25° |
| 2026-04-23 14:51 | 42.04115 | 19.59753 | 37031 ft | 426 kts | 25° |
| 2026-04-23 14:51 | 42.09574 | 19.62870 | 37031 ft | 426 kts | 25° |
| 2026-04-23 14:52 | 42.15017 | 19.65992 | 37027 ft | 425 kts | 25° |
| 2026-04-23 14:52 | 42.20461 | 19.69138 | 37035 ft | 425 kts | 25° |
| 2026-04-23 14:53 | 42.25904 | 19.72288 | 37035 ft | 425 kts | 25° |
| 2026-04-23 14:53 | 42.31295 | 19.75418 | 37038 ft | 425 kts | 26° |
| 2026-04-23 14:54 | 42.36731 | 19.78576 | 37049 ft | 424 kts | 25° |
| 2026-04-23 14:54 | 42.42169 | 19.81715 | 37058 ft | 424 kts | 25° |
| 2026-04-23 14:55 | 42.47601 | 19.84866 | 37055 ft | 425 kts | 26° |
| 2026-04-23 14:55 | 42.52872 | 19.88321 | 37068 ft | 422 kts | 30° |
| 2026-04-23 14:56 | 42.58053 | 19.92077 | 37070 ft | 420 kts | 30° |
| 2026-04-23 14:56 | 42.63196 | 19.95821 | 37069 ft | 419 kts | 30° |
| 2026-04-23 14:57 | 42.68363 | 19.99496 | 37065 ft | 418 kts | 30° |
| 2026-04-23 14:57 | 42.73524 | 20.03148 | 37071 ft | 417 kts | 29° |
| 2026-04-23 14:58 | 42.78660 | 20.06787 | 37074 ft | 416 kts | 29° |
| 2026-04-23 14:58 | 42.83767 | 20.10411 | 37060 ft | 416 kts | 29° |
| 2026-04-23 14:59 | 42.88897 | 20.14060 | 37067 ft | 415 kts | 29° |
| 2026-04-23 14:59 | 42.94015 | 20.17727 | 37060 ft | 415 kts | 29° |
| 2026-04-23 15:00 | 42.99137 | 20.21402 | 37057 ft | 415 kts | 29° |
| 2026-04-23 15:00 | 43.04269 | 20.25072 | 37061 ft | 416 kts | 29° |
| 2026-04-23 15:01 | 43.09395 | 20.28751 | 37062 ft | 416 kts | 29° |
| 2026-04-23 15:01 | 43.14488 | 20.32425 | 37060 ft | 416 kts | 29° |
| 2026-04-23 15:02 | 43.19604 | 20.36126 | 37056 ft | 416 kts | 29° |
| 2026-04-23 15:02 | 43.24721 | 20.39823 | 37058 ft | 416 kts | 29° |
| 2026-04-23 15:03 | 43.29845 | 20.43526 | 37057 ft | 416 kts | 29° |
| 2026-04-23 15:03 | 43.34969 | 20.47233 | 37056 ft | 416 kts | 29° |
| 2026-04-23 15:04 | 43.40085 | 20.50941 | 37063 ft | 416 kts | 29° |
| 2026-04-23 15:04 | 43.45199 | 20.54662 | 37064 ft | 416 kts | 29° |
| 2026-04-23 15:05 | 43.50288 | 20.58382 | 37057 ft | 415 kts | 29° |
| 2026-04-23 15:05 | 43.55399 | 20.62123 | 37057 ft | 415 kts | 29° |
| 2026-04-23 15:06 | 43.60505 | 20.65867 | 37055 ft | 415 kts | 29° |
| 2026-04-23 15:06 | 43.65610 | 20.69613 | 37057 ft | 416 kts | 29° |
| 2026-04-23 15:07 | 43.70725 | 20.73369 | 37046 ft | 416 kts | 29° |
| 2026-04-23 15:07 | 43.75839 | 20.77135 | 37046 ft | 416 kts | 29° |
| 2026-04-23 15:08 | 43.80952 | 20.80909 | 37047 ft | 416 kts | 29° |
| 2026-04-23 15:09 | 43.88632 | 20.86581 | 37055 ft | 417 kts | 29° |
| 2026-04-23 15:09 | 43.93751 | 20.90382 | 37059 ft | 417 kts | 29° |
| 2026-04-23 15:10 | 43.98009 | 20.93552 | 37064 ft | 417 kts | 29° |
| 2026-04-23 15:10 | 44.03961 | 20.97983 | 37059 ft | 417 kts | 29° |
| 2026-04-23 15:11 | 44.09073 | 21.01798 | 37060 ft | 417 kts | 29° |
| 2026-04-23 15:11 | 44.14195 | 21.05627 | 37058 ft | 417 kts | 29° |
| 2026-04-23 15:12 | 44.19318 | 21.09461 | 37051 ft | 417 kts | 28° |
| 2026-04-23 15:12 | 44.24431 | 21.13306 | 37052 ft | 418 kts | 29° |
| 2026-04-23 15:13 | 44.29544 | 21.17155 | 37051 ft | 418 kts | 28° |
| 2026-04-23 15:13 | 44.34671 | 21.21005 | 37048 ft | 418 kts | 28° |
| 2026-04-23 15:14 | 44.39788 | 21.24862 | 37038 ft | 418 kts | 28° |
| 2026-04-23 15:14 | 44.44879 | 21.28710 | 37040 ft | 418 kts | 28° |
| 2026-04-23 15:15 | 44.49999 | 21.32600 | 37037 ft | 418 kts | 28° |
| 2026-04-23 15:15 | 44.55120 | 21.36490 | 37039 ft | 418 kts | 28° |
| 2026-04-23 15:16 | 44.60233 | 21.40378 | 37036 ft | 418 kts | 28° |
| 2026-04-23 15:16 | 44.65344 | 21.44281 | 37035 ft | 418 kts | 28° |
| 2026-04-23 15:17 | 44.70430 | 21.48170 | 37028 ft | 418 kts | 28° |
| 2026-04-23 15:17 | 44.75542 | 21.52086 | 37025 ft | 418 kts | 28° |
| 2026-04-23 15:18 | 44.80574 | 21.56208 | 37026 ft | 418 kts | 32° |
| 2026-04-23 15:18 | 44.85442 | 21.60707 | 37027 ft | 418 kts | 33° |
| 2026-04-23 15:19 | 44.90285 | 21.65277 | 37025 ft | 418 kts | 33° |
| 2026-04-23 15:19 | 44.95148 | 21.69787 | 37024 ft | 418 kts | 33° |
| 2026-04-23 15:20 | 44.99200 | 21.73499 | 37023 ft | 418 kts | 32° |
| 2026-04-23 15:20 | 45.04911 | 21.78729 | 37023 ft | 418 kts | 32° |
| 2026-04-23 15:21 | 45.09798 | 21.83229 | 37007 ft | 419 kts | 33° |
| 2026-04-23 15:21 | 45.14651 | 21.87710 | 37006 ft | 419 kts | 33° |
| 2026-04-23 15:22 | 45.19529 | 21.92238 | 37010 ft | 419 kts | 33° |
| 2026-04-23 15:22 | 45.24417 | 21.96775 | 37000 ft | 420 kts | 32° |
| 2026-04-23 15:23 | 45.29313 | 22.01320 | 36997 ft | 420 kts | 32° |
| 2026-04-23 15:23 | 45.34217 | 22.05887 | 36997 ft | 421 kts | 32° |
| 2026-04-23 15:24 | 45.39121 | 22.10458 | 36995 ft | 421 kts | 33° |
| 2026-04-23 15:24 | 45.43996 | 22.15029 | 37006 ft | 421 kts | 32° |
| 2026-04-23 15:25 | 45.48892 | 22.19630 | 37010 ft | 421 kts | 32° |
| 2026-04-23 15:25 | 45.52961 | 22.23455 | 37008 ft | 421 kts | 32° |
| 2026-04-23 15:26 | 45.57849 | 22.28045 | 37009 ft | 420 kts | 32° |
| 2026-04-23 15:26 | 45.62733 | 22.32652 | 37010 ft | 420 kts | 32° |
| 2026-04-23 15:27 | 45.67618 | 22.37268 | 37005 ft | 420 kts | 32° |
| 2026-04-23 15:27 | 45.72501 | 22.41886 | 36997 ft | 420 kts | 32° |
| 2026-04-23 15:28 | 45.77346 | 22.46484 | 36995 ft | 420 kts | 32° |
| 2026-04-23 15:28 | 45.82227 | 22.51134 | 36987 ft | 421 kts | 32° |
| 2026-04-23 15:29 | 45.87108 | 22.55790 | 36983 ft | 421 kts | 32° |
| 2026-04-23 15:29 | 45.91985 | 22.60447 | 36982 ft | 421 kts | 32° |
| 2026-04-23 15:30 | 45.96874 | 22.65127 | 36976 ft | 421 kts | 32° |
| 2026-04-23 15:30 | 46.01749 | 22.69805 | 36969 ft | 422 kts | 32° |
| 2026-04-23 15:31 | 46.06634 | 22.74501 | 36969 ft | 422 kts | 32° |
| 2026-04-23 15:31 | 46.11516 | 22.79219 | 36968 ft | 422 kts | 32° |
| 2026-04-23 15:32 | 46.16375 | 22.83913 | 36977 ft | 422 kts | 32° |
| 2026-04-23 15:32 | 46.21268 | 22.88642 | 36973 ft | 422 kts | 32° |
| 2026-04-23 15:33 | 46.26121 | 22.93345 | 36966 ft | 422 kts | 32° |
| 2026-04-23 15:33 | 46.30998 | 22.98087 | 36985 ft | 422 kts | 31° |
| 2026-04-23 15:34 | 46.35861 | 23.02829 | 36982 ft | 420 kts | 31° |
| 2026-04-23 15:34 | 46.40547 | 23.07894 | 36973 ft | 422 kts | 41° |
| 2026-04-23 15:35 | 46.44728 | 23.13885 | 36966 ft | 422 kts | 41° |
| 2026-04-23 15:35 | 46.48913 | 23.19865 | 36956 ft | 421 kts | 41° |
| 2026-04-23 15:36 | 46.53097 | 23.25846 | 36949 ft | 421 kts | 41° |
| 2026-04-23 15:36 | 46.57267 | 23.31838 | 36945 ft | 421 kts | 41° |
| 2026-04-23 15:37 | 46.61404 | 23.37798 | 36942 ft | 422 kts | 41° |
| 2026-04-23 15:37 | 46.65570 | 23.43822 | 36940 ft | 422 kts | 41° |
| 2026-04-23 15:38 | 46.69728 | 23.49847 | 36939 ft | 421 kts | 41° |
| 2026-04-23 15:38 | 46.73887 | 23.55876 | 36938 ft | 421 kts | 41° |
| 2026-04-23 15:39 | 46.78048 | 23.61909 | 36935 ft | 421 kts | 41° |
| 2026-04-23 15:39 | 46.82198 | 23.67955 | 36934 ft | 421 kts | 41° |
| 2026-04-23 15:40 | 46.86319 | 23.73981 | 36925 ft | 422 kts | 41° |
| 2026-04-23 15:40 | 46.90468 | 23.80053 | 36918 ft | 422 kts | 41° |
| 2026-04-23 15:41 | 46.94621 | 23.86147 | 36913 ft | 423 kts | 41° |
| 2026-04-23 15:41 | 46.98777 | 23.92261 | 36909 ft | 423 kts | 41° |
| 2026-04-23 15:42 | 47.02923 | 23.98360 | 36897 ft | 423 kts | 41° |
| 2026-04-23 15:42 | 47.07077 | 24.04493 | 36887 ft | 423 kts | 41° |
| 2026-04-23 15:43 | 47.11220 | 24.10637 | 36883 ft | 423 kts | 41° |
| 2026-04-23 15:43 | 47.15365 | 24.16781 | 36896 ft | 424 kts | 41° |
| 2026-04-23 15:44 | 47.19515 | 24.22961 | 36908 ft | 424 kts | 41° |
| 2026-04-23 15:44 | 47.23630 | 24.29114 | 36897 ft | 424 kts | 41° |
| 2026-04-23 15:45 | 47.27776 | 24.35312 | 36883 ft | 424 kts | 41° |
| 2026-04-23 15:45 | 47.31925 | 24.41522 | 36897 ft | 424 kts | 41° |
| 2026-04-23 15:46 | 47.36067 | 24.47740 | 36895 ft | 424 kts | 41° |
| 2026-04-23 15:46 | 47.40176 | 24.53929 | 36888 ft | 424 kts | 41° |
| 2026-04-23 15:47 | 47.44310 | 24.60165 | 36886 ft | 424 kts | 41° |
| 2026-04-23 15:47 | 47.48446 | 24.66410 | 36897 ft | 424 kts | 40° |
| 2026-04-23 15:48 | 47.52570 | 24.72660 | 36887 ft | 424 kts | 40° |
| 2026-04-23 15:48 | 47.56658 | 24.78887 | 36878 ft | 424 kts | 41° |
| 2026-04-23 15:49 | 47.60806 | 24.85206 | 36882 ft | 424 kts | 41° |
| 2026-04-23 15:49 | 47.64923 | 24.91486 | 36879 ft | 424 kts | 41° |
| 2026-04-23 15:50 | 47.68997 | 24.97726 | 36891 ft | 423 kts | 41° |
| 2026-04-23 15:50 | 47.73084 | 25.04016 | 36886 ft | 422 kts | 41° |
| 2026-04-23 15:51 | 47.77336 | 25.09977 | 36880 ft | 418 kts | 36° |
| 2026-04-23 15:51 | 47.81773 | 25.15553 | 36870 ft | 417 kts | 35° |
| 2026-04-23 15:52 | 47.86220 | 25.21122 | 36877 ft | 418 kts | 36° |
| 2026-04-23 15:52 | 47.90618 | 25.26798 | 36866 ft | 418 kts | 36° |
| 2026-04-23 15:53 | 47.94983 | 25.32519 | 36858 ft | 418 kts | 36° |
| 2026-04-23 15:53 | 47.99321 | 25.38213 | 36852 ft | 417 kts | 36° |
| 2026-04-23 15:54 | 48.03683 | 25.43933 | 36870 ft | 417 kts | 36° |
| 2026-04-23 15:54 | 48.07902 | 25.49931 | 36856 ft | 423 kts | 45° |
| 2026-04-23 15:55 | 48.11362 | 25.57111 | 36843 ft | 425 kts | 49° |
| 2026-04-23 15:55 | 48.14784 | 25.64345 | 36830 ft | 425 kts | 49° |
| 2026-04-23 15:56 | 48.18205 | 25.71583 | 36835 ft | 426 kts | 49° |
| 2026-04-23 15:56 | 48.21631 | 25.78830 | 36825 ft | 426 kts | 49° |
| 2026-04-23 15:57 | 48.25038 | 25.86046 | 36824 ft | 426 kts | 49° |
| 2026-04-23 15:57 | 48.28459 | 25.93326 | 36825 ft | 426 kts | 49° |
| 2026-04-23 15:58 | 48.31866 | 26.00609 | 36827 ft | 426 kts | 49° |
| 2026-04-23 15:58 | 48.35272 | 26.07905 | 36842 ft | 426 kts | 49° |
| 2026-04-23 15:59 | 48.38667 | 26.15207 | 36826 ft | 425 kts | 49° |
| 2026-04-23 15:59 | 48.42052 | 26.22502 | 36819 ft | 425 kts | 49° |
| 2026-04-23 16:00 | 48.45440 | 26.29794 | 36807 ft | 425 kts | 49° |
| 2026-04-23 16:00 | 48.48827 | 26.37111 | 36831 ft | 425 kts | 49° |
| 2026-04-23 16:01 | 48.52172 | 26.44386 | 36819 ft | 424 kts | 49° |
| 2026-04-23 16:01 | 48.55535 | 26.51717 | 36812 ft | 424 kts | 49° |
| 2026-04-23 16:02 | 48.58898 | 26.59053 | 36801 ft | 424 kts | 49° |
| 2026-04-23 16:02 | 48.62259 | 26.66382 | 36797 ft | 423 kts | 49° |
| 2026-04-23 16:03 | 48.65582 | 26.73671 | 36814 ft | 424 kts | 49° |
| 2026-04-23 16:03 | 48.68920 | 26.81022 | 36803 ft | 424 kts | 49° |
| 2026-04-23 16:04 | 48.72247 | 26.88370 | 36270 ft | 421 kts | 49° |
| 2026-04-23 16:04 | 48.73902 | 26.92039 | 35645 ft | 421 kts | 48° |
| 2026-04-23 16:04 | 48.75553 | 26.95700 | 35072 ft | 419 kts | 48° |
| 2026-04-23 16:04 | 48.77195 | 26.99344 | 34489 ft | 418 kts | 47° |
| 2026-04-23 16:05 | 48.78280 | 27.01753 | 34101 ft | 417 kts | 47° |
| 2026-04-23 16:05 | 48.80459 | 27.06590 | 33296 ft | 414 kts | 47° |
| 2026-04-23 16:05 | 48.82079 | 27.10191 | 32568 ft | 413 kts | 47° |
| 2026-04-23 16:05 | 48.83696 | 27.13784 | 31784 ft | 413 kts | 47° |
| 2026-04-23 16:06 | 48.84769 | 27.16168 | 31261 ft | 413 kts | 47° |
| 2026-04-23 16:06 | 48.86917 | 27.20950 | 30181 ft | 413 kts | 47° |
| 2026-04-23 16:06 | 48.88538 | 27.24565 | 29251 ft | 414 kts | 47° |
| 2026-04-23 16:06 | 48.90159 | 27.28188 | 28182 ft | 417 kts | 47° |
| 2026-04-23 16:07 | 48.91791 | 27.31847 | 27072 ft | 420 kts | 47° |
| 2026-04-23 16:07 | 48.92905 | 27.34347 | 26286 ft | 422 kts | 47° |
| 2026-04-23 16:07 | 48.94560 | 27.38055 | 25056 ft | 427 kts | 47° |
| 2026-04-23 16:07 | 48.96213 | 27.41761 | 23943 ft | 431 kts | 47° |
| 2026-04-23 16:08 | 48.97884 | 27.45539 | 23032 ft | 427 kts | 47° |
| 2026-04-23 16:08 | 48.99530 | 27.49275 | 22037 ft | 422 kts | 47° |
| 2026-04-23 16:08 | 49.01150 | 27.52967 | 21141 ft | 417 kts | 47° |
| 2026-04-23 16:08 | 49.02755 | 27.56623 | 20294 ft | 411 kts | 47° |
| 2026-04-23 16:09 | 49.04332 | 27.60211 | 19461 ft | 405 kts | 47° |
| 2026-04-23 16:09 | 49.05899 | 27.63761 | 18651 ft | 400 kts | 47° |
| 2026-04-23 16:09 | 49.07447 | 27.67270 | 17822 ft | 395 kts | 47° |
| 2026-04-23 16:09 | 49.08949 | 27.70683 | 16926 ft | 391 kts | 48° |
| 2026-04-23 16:10 | 49.10471 | 27.74146 | 16100 ft | 386 kts | 48° |
| 2026-04-23 16:10 | 49.11956 | 27.77536 | 15290 ft | 382 kts | 48° |
| 2026-04-23 16:10 | 49.13386 | 27.80880 | 14528 ft | 381 kts | 52° |
| 2026-04-23 16:10 | 49.14540 | 27.84562 | 13805 ft | 387 kts | 61° |
| 2026-04-23 16:11 | 49.15271 | 27.88552 | 13014 ft | 393 kts | 71° |
| 2026-04-23 16:11 | 49.15607 | 27.92723 | 12202 ft | 394 kts | 76° |
| 2026-04-23 16:11 | 49.15884 | 27.96848 | 11303 ft | 387 kts | 78° |
| 2026-04-23 16:11 | 49.15695 | 28.00969 | 10253 ft | 392 kts | 98° |
| 2026-04-23 16:12 | 49.14895 | 28.04906 | 9407 ft | 383 kts | 104° |
| 2026-04-23 16:12 | 49.14059 | 28.08700 | 9052 ft | 369 kts | 104° |
| 2026-04-23 16:12 | 49.13252 | 28.12318 | 8963 ft | 351 kts | 104° |
| 2026-04-23 16:12 | 49.12477 | 28.15765 | 8821 ft | 337 kts | 104° |
| 2026-04-23 16:13 | 49.11720 | 28.19093 | 8684 ft | 325 kts | 104° |
| 2026-04-23 16:13 | 49.10269 | 28.25372 | 8408 ft | 304 kts | 104° |
| 2026-04-23 16:13 | 49.09562 | 28.28390 | 8139 ft | 300 kts | 104° |
| 2026-04-23 16:14 | 49.08865 | 28.31375 | 7815 ft | 298 kts | 104° |
| 2026-04-23 16:14 | 49.08177 | 28.34344 | 7443 ft | 296 kts | 104° |
| 2026-04-23 16:14 | 49.07495 | 28.37277 | 7101 ft | 295 kts | 104° |
| 2026-04-23 16:14 | 49.06809 | 28.40227 | 6772 ft | 294 kts | 104° |
| 2026-04-23 16:15 | 49.06126 | 28.43173 | 6436 ft | 293 kts | 104° |
| 2026-04-23 16:15 | 49.05452 | 28.46100 | 6140 ft | 291 kts | 104° |
| 2026-04-23 16:15 | 49.04785 | 28.49014 | 5809 ft | 290 kts | 104° |
| 2026-04-23 16:15 | 49.04117 | 28.51913 | 5459 ft | 289 kts | 104° |
| 2026-04-23 16:16 | 49.03451 | 28.54797 | 5108 ft | 288 kts | 104° |
| 2026-04-23 16:16 | 49.02788 | 28.57676 | 4747 ft | 287 kts | 104° |
| 2026-04-23 16:16 | 49.02132 | 28.60532 | 4450 ft | 285 kts | 104° |
| 2026-04-23 16:16 | 49.01491 | 28.63331 | 4114 ft | 283 kts | 104° |
| 2026-04-23 16:17 | 49.00846 | 28.66156 | 3831 ft | 280 kts | 102° |
| 2026-04-23 16:17 | 49.00584 | 28.68980 | 3688 ft | 260 kts | 79° |
| 2026-04-23 16:17 | 49.00973 | 28.71544 | 3563 ft | 239 kts | 58° |
| 2026-04-23 16:17 | 49.01848 | 28.73573 | 3438 ft | 219 kts | 39° |
| 2026-04-23 16:18 | 49.02992 | 28.74936 | 3303 ft | 201 kts | 22° |
| 2026-04-23 16:18 | 49.04241 | 28.75665 | 3179 ft | 186 kts | 7° |
| 2026-04-23 16:18 | 49.05489 | 28.75841 | 3076 ft | 175 kts | 354° |
| 2026-04-23 16:18 | 49.06672 | 28.75577 | 2999 ft | 174 kts | 347° |
| 2026-04-23 16:19 | 49.07851 | 28.75234 | 2974 ft | 168 kts | 348° |
| 2026-04-23 16:19 | 49.08978 | 28.74912 | 2973 ft | 162 kts | 347° |
| 2026-04-23 16:19 | 49.10080 | 28.74597 | 2970 ft | 160 kts | 347° |
| 2026-04-23 16:19 | 49.11173 | 28.74285 | 2970 ft | 159 kts | 347° |
| 2026-04-23 16:20 | 49.12263 | 28.73973 | 2972 ft | 159 kts | 347° |
| 2026-04-23 16:20 | 49.13350 | 28.73660 | 2977 ft | 159 kts | 347° |
| 2026-04-23 16:20 | 49.14440 | 28.73346 | 2978 ft | 159 kts | 347° |
| 2026-04-23 16:20 | 49.15524 | 28.72990 | 2967 ft | 159 kts | 339° |
| 2026-04-23 16:21 | 49.16435 | 28.72038 | 2852 ft | 160 kts | 321° |
| 2026-04-23 16:21 | 49.17264 | 28.70904 | 2663 ft | 160 kts | 321° |
| 2026-04-23 16:21 | 49.18090 | 28.69779 | 2474 ft | 155 kts | 321° |
| 2026-04-23 16:21 | 49.18855 | 28.68734 | 2271 ft | 140 kts | 321° |
| 2026-04-23 16:22 | 49.19530 | 28.67814 | 2083 ft | 125 kts | 322° |
| 2026-04-23 16:22 | 49.20142 | 28.66979 | 1924 ft | 114 kts | 323° |
| 2026-04-23 16:22 | 49.20728 | 28.66184 | 1768 ft | 112 kts | 322° |
| 2026-04-23 16:22 | 49.21313 | 28.65387 | 1602 ft | 113 kts | 322° |
| 2026-04-23 16:23 | 49.21897 | 28.64593 | 1440 ft | 112 kts | 323° |
| 2026-04-23 16:23 | 49.22482 | 28.63795 | 1268 ft | 117 kts | 320° |
| 2026-04-23 16:23 | 49.23098 | 28.62957 | 1106 ft | 120 kts | 320° |
| 2026-04-23 16:23 | 49.23727 | 28.62102 | 988 ft | 118 kts | 319° |
| 2026-04-23 16:24 | 49.24278 | 28.61359 | 977 ft | 86 kts | 317° |
| 2026-04-23 16:24 | 49.24459 | 28.61033 | 973 ft | 21 kts | 266° |
| 2026-04-23 16:24 | 49.24392 | 28.60886 | 975 ft | 16 kts | 229° |
| 2026-04-23 16:24 | 49.24345 | 28.60764 | 977 ft | 11 kts | 288° |
| 2026-04-23 16:25 | 49.24382 | 28.60689 | 975 ft | 7 kts | 280° |
| 2026-04-23 16:25 | 49.24369 | 28.60653 | 976 ft | 0 kts | 234° |